sensor_id;sensor_type;location;lat;lon;timestamp;temperature;humidity
65074;DHT22;52218;51.224;-2.328;2022-10-16T00:01:13;12.80;99.90
65074;DHT22;52218;51.224;-2.328;2022-10-16T00:04:55;12.80;99.90
65074;DHT22;52218;51.224;-2.328;2022-10-16T00:08:37;12.80;99.90
65074;DHT22;52218;51.224;-2.328;2022-10-16T00:12:19;12.80;99.90
65074;DHT22;52218;51.224;-2.328;2022-10-16T00:16:02;12.80;99.90
65074;DHT22;52218;51.224;-2.328;2022-10-16T00:19:45;12.70;99.90
65074;DHT22;52218;51.224;-2.328;2022-10-16T00:23:26;12.70;99.90
65074;DHT22;52218;51.224;-2.328;2022-10-16T00:27:08;12.60;99.90
65074;DHT22;52218;51.224;-2.328;2022-10-16T00:30:50;12.60;99.90
65074;DHT22;52218;51.224;-2.328;2022-10-16T00:34:32;12.60;99.90
65074;DHT22;52218;51.224;-2.328;2022-10-16T00:38:14;12.60;99.90
65074;DHT22;52218;51.224;-2.328;2022-10-16T00:41:56;12.60;99.90
65074;DHT22;52218;51.224;-2.328;2022-10-16T00:45:38;12.50;99.90
65074;DHT22;52218;51.224;-2.328;2022-10-16T00:49:20;12.50;99.90
65074;DHT22;52218;51.224;-2.328;2022-10-16T00:53:03;12.50;99.90
65074;DHT22;52218;51.224;-2.328;2022-10-16T00:56:46;12.50;99.90
65074;DHT22;52218;51.224;-2.328;2022-10-16T01:00:28;12.40;99.90
65074;DHT22;52218;51.224;-2.328;2022-10-16T01:04:10;12.40;99.90
65074;DHT22;52218;51.224;-2.328;2022-10-16T01:08:11;12.30;99.90
65074;DHT22;52218;51.224;-2.328;2022-10-16T01:16:14;12.30;99.90
65074;DHT22;52218;51.224;-2.328;2022-10-16T01:24:33;12.20;99.90
65074;DHT22;52218;51.224;-2.328;2022-10-16T01:28:19;12.10;99.90
65074;DHT22;52218;51.224;-2.328;2022-10-16T01:32:33;12.10;99.90
65074;DHT22;52218;51.224;-2.328;2022-10-16T01:36:23;12.00;99.90
65074;DHT22;52218;51.224;-2.328;2022-10-16T01:40:12;11.90;99.90
65074;DHT22;52218;51.224;-2.328;2022-10-16T01:44:05;11.90;99.90
65074;DHT22;52218;51.224;-2.328;2022-10-16T01:47:48;11.90;99.90
65074;DHT22;52218;51.224;-2.328;2022-10-16T01:51:32;11.80;99.90
65074;DHT22;52218;51.224;-2.328;2022-10-16T01:55:30;11.80;99.90
65074;DHT22;52218;51.224;-2.328;2022-10-16T01:59:16;11.80;99.90
65074;DHT22;52218;51.224;-2.328;2022-10-16T02:03:01;11.80;99.90
65074;DHT22;52218;51.224;-2.328;2022-10-16T02:06:44;11.70;99.90
65074;DHT22;52218;51.224;-2.328;2022-10-16T02:10:26;11.70;99.90
65074;DHT22;52218;51.224;-2.328;2022-10-16T02:14:13;11.70;99.90
65074;DHT22;52218;51.224;-2.328;2022-10-16T02:17:55;11.70;99.90
65074;DHT22;52218;51.224;-2.328;2022-10-16T02:25:34;11.60;99.90
65074;DHT22;52218;51.224;-2.328;2022-10-16T02:29:22;11.50;99.90
65074;DHT22;52218;51.224;-2.328;2022-10-16T02:33:08;11.50;99.90
65074;DHT22;52218;51.224;-2.328;2022-10-16T02:36:51;11.40;99.90
65074;DHT22;52218;51.224;-2.328;2022-10-16T02:40:34;11.40;99.90
65074;DHT22;52218;51.224;-2.328;2022-10-16T02:44:16;11.30;99.90
65074;DHT22;52218;51.224;-2.328;2022-10-16T02:47:58;11.20;99.90
65074;DHT22;52218;51.224;-2.328;2022-10-16T02:51:40;11.20;99.90
65074;DHT22;52218;51.224;-2.328;2022-10-16T02:55:22;11.20;99.90
65074;DHT22;52218;51.224;-2.328;2022-10-16T02:59:04;11.10;99.90
65074;DHT22;52218;51.224;-2.328;2022-10-16T03:02:46;11.10;99.90
65074;DHT22;52218;51.224;-2.328;2022-10-16T03:06:28;11.00;99.90
65074;DHT22;52218;51.224;-2.328;2022-10-16T03:10:10;11.00;99.90
65074;DHT22;52218;51.224;-2.328;2022-10-16T03:13:52;11.00;99.90
65074;DHT22;52218;51.224;-2.328;2022-10-16T03:17:34;11.00;99.90
65074;DHT22;52218;51.224;-2.328;2022-10-16T03:21:16;10.90;99.90
65074;DHT22;52218;51.224;-2.328;2022-10-16T03:24:58;10.90;99.90
65074;DHT22;52218;51.224;-2.328;2022-10-16T03:28:40;10.90;99.90
65074;DHT22;52218;51.224;-2.328;2022-10-16T03:32:22;10.80;99.90
65074;DHT22;52218;51.224;-2.328;2022-10-16T03:36:06;10.80;99.90
65074;DHT22;52218;51.224;-2.328;2022-10-16T03:39:48;10.80;99.90
65074;DHT22;52218;51.224;-2.328;2022-10-16T03:43:30;10.80;99.90
65074;DHT22;52218;51.224;-2.328;2022-10-16T03:47:12;10.80;99.90
65074;DHT22;52218;51.224;-2.328;2022-10-16T03:50:54;10.80;99.90
65074;DHT22;52218;51.224;-2.328;2022-10-16T03:54:36;10.80;99.90
65074;DHT22;52218;51.224;-2.328;2022-10-16T03:58:18;10.70;99.90
65074;DHT22;52218;51.224;-2.328;2022-10-16T04:02:01;10.70;99.90
65074;DHT22;52218;51.224;-2.328;2022-10-16T04:05:43;10.70;99.90
65074;DHT22;52218;51.224;-2.328;2022-10-16T04:09:25;10.70;99.90
65074;DHT22;52218;51.224;-2.328;2022-10-16T04:13:07;10.70;99.90
65074;DHT22;52218;51.224;-2.328;2022-10-16T04:16:49;10.70;99.90
65074;DHT22;52218;51.224;-2.328;2022-10-16T04:20:31;10.70;99.90
65074;DHT22;52218;51.224;-2.328;2022-10-16T04:24:13;10.70;99.90
65074;DHT22;52218;51.224;-2.328;2022-10-16T04:27:55;10.70;99.90
65074;DHT22;52218;51.224;-2.328;2022-10-16T04:31:37;10.70;99.90
65074;DHT22;52218;51.224;-2.328;2022-10-16T04:35:20;10.60;99.90
65074;DHT22;52218;51.224;-2.328;2022-10-16T04:39:02;10.60;99.90
65074;DHT22;52218;51.224;-2.328;2022-10-16T04:42:44;10.50;99.90
65074;DHT22;52218;51.224;-2.328;2022-10-16T04:46:26;10.50;99.90
65074;DHT22;52218;51.224;-2.328;2022-10-16T04:50:08;10.40;99.90
65074;DHT22;52218;51.224;-2.328;2022-10-16T04:53:50;10.40;99.90
65074;DHT22;52218;51.224;-2.328;2022-10-16T04:57:34;10.30;99.90
65074;DHT22;52218;51.224;-2.328;2022-10-16T05:01:16;10.20;99.90
65074;DHT22;52218;51.224;-2.328;2022-10-16T05:04:58;10.20;99.90
65074;DHT22;52218;51.224;-2.328;2022-10-16T05:08:40;10.20;99.90
65074;DHT22;52218;51.224;-2.328;2022-10-16T05:12:21;10.20;99.90
65074;DHT22;52218;51.224;-2.328;2022-10-16T05:16:03;10.20;99.90
65074;DHT22;52218;51.224;-2.328;2022-10-16T05:19:45;10.20;99.90
65074;DHT22;52218;51.224;-2.328;2022-10-16T05:23:27;10.10;99.90
65074;DHT22;52218;51.224;-2.328;2022-10-16T05:27:10;10.10;99.90
65074;DHT22;52218;51.224;-2.328;2022-10-16T05:30:53;10.00;99.90
65074;DHT22;52218;51.224;-2.328;2022-10-16T05:34:35;9.90;99.90
65074;DHT22;52218;51.224;-2.328;2022-10-16T05:38:17;9.90;99.90
65074;DHT22;52218;51.224;-2.328;2022-10-16T05:41:59;10.00;99.90
65074;DHT22;52218;51.224;-2.328;2022-10-16T05:45:41;10.10;99.90
65074;DHT22;52218;51.224;-2.328;2022-10-16T05:49:24;10.10;99.90
65074;DHT22;52218;51.224;-2.328;2022-10-16T05:53:06;10.20;99.90
65074;DHT22;52218;51.224;-2.328;2022-10-16T05:56:47;10.20;99.90
65074;DHT22;52218;51.224;-2.328;2022-10-16T06:00:29;10.20;99.90
65074;DHT22;52218;51.224;-2.328;2022-10-16T06:04:11;10.30;99.90
65074;DHT22;52218;51.224;-2.328;2022-10-16T06:07:53;10.20;99.90
65074;DHT22;52218;51.224;-2.328;2022-10-16T06:11:36;10.30;99.90
65074;DHT22;52218;51.224;-2.328;2022-10-16T06:15:18;10.30;99.90
65074;DHT22;52218;51.224;-2.328;2022-10-16T06:19:00;10.30;99.90
65074;DHT22;52218;51.224;-2.328;2022-10-16T06:22:42;10.20;99.90
65074;DHT22;52218;51.224;-2.328;2022-10-16T06:26:27;10.20;99.90
65074;DHT22;52218;51.224;-2.328;2022-10-16T06:30:09;10.10;99.90
65074;DHT22;52218;51.224;-2.328;2022-10-16T06:33:51;10.10;99.90
65074;DHT22;52218;51.224;-2.328;2022-10-16T06:37:33;10.10;99.90
65074;DHT22;52218;51.224;-2.328;2022-10-16T06:41:18;10.10;99.90
65074;DHT22;52218;51.224;-2.328;2022-10-16T06:45:00;10.00;99.90
65074;DHT22;52218;51.224;-2.328;2022-10-16T06:48:43;9.90;99.90
65074;DHT22;52218;51.224;-2.328;2022-10-16T06:52:28;9.90;99.90
65074;DHT22;52218;51.224;-2.328;2022-10-16T06:59:52;9.70;99.90
65074;DHT22;52218;51.224;-2.328;2022-10-16T07:03:37;9.60;99.90
65074;DHT22;52218;51.224;-2.328;2022-10-16T07:07:19;9.60;99.90
65074;DHT22;52218;51.224;-2.328;2022-10-16T07:11:05;9.50;99.90
65074;DHT22;52218;51.224;-2.328;2022-10-16T07:14:48;9.50;99.90
65074;DHT22;52218;51.224;-2.328;2022-10-16T07:18:30;9.50;99.90
65074;DHT22;52218;51.224;-2.328;2022-10-16T07:22:13;9.50;99.90
65074;DHT22;52218;51.224;-2.328;2022-10-16T07:25:55;9.40;99.90
65074;DHT22;52218;51.224;-2.328;2022-10-16T07:29:37;9.60;99.90
65074;DHT22;52218;51.224;-2.328;2022-10-16T07:33:20;9.70;99.90
65074;DHT22;52218;51.224;-2.328;2022-10-16T07:37:02;9.80;99.90
65074;DHT22;52218;51.224;-2.328;2022-10-16T07:40:44;9.90;99.90
65074;DHT22;52218;51.224;-2.328;2022-10-16T07:44:26;9.90;99.90
65074;DHT22;52218;51.224;-2.328;2022-10-16T07:48:08;10.00;99.90
65074;DHT22;52218;51.224;-2.328;2022-10-16T07:51:50;10.10;99.90
65074;DHT22;52218;51.224;-2.328;2022-10-16T07:55:31;10.20;99.90
65074;DHT22;52218;51.224;-2.328;2022-10-16T07:59:13;10.30;99.90
65074;DHT22;52218;51.224;-2.328;2022-10-16T08:02:56;10.40;99.90
65074;DHT22;52218;51.224;-2.328;2022-10-16T08:06:41;10.40;99.90
65074;DHT22;52218;51.224;-2.328;2022-10-16T08:10:26;10.50;99.90
65074;DHT22;52218;51.224;-2.328;2022-10-16T08:14:08;10.60;99.90
65074;DHT22;52218;51.224;-2.328;2022-10-16T08:18:01;10.60;99.90
65074;DHT22;52218;51.224;-2.328;2022-10-16T08:21:47;10.70;99.90
65074;DHT22;52218;51.224;-2.328;2022-10-16T08:25:29;10.80;99.90
65074;DHT22;52218;51.224;-2.328;2022-10-16T08:29:13;10.90;99.90
65074;DHT22;52218;51.224;-2.328;2022-10-16T08:32:55;11.10;99.90
65074;DHT22;52218;51.224;-2.328;2022-10-16T08:36:37;11.10;99.90
65074;DHT22;52218;51.224;-2.328;2022-10-16T08:40:24;11.30;99.90
65074;DHT22;52218;51.224;-2.328;2022-10-16T08:44:34;11.40;99.90
65074;DHT22;52218;51.224;-2.328;2022-10-16T08:48:41;11.50;99.90
65074;DHT22;52218;51.224;-2.328;2022-10-16T08:52:29;11.60;99.90
65074;DHT22;52218;51.224;-2.328;2022-10-16T08:56:12;11.70;99.90
65074;DHT22;52218;51.224;-2.328;2022-10-16T09:00:01;11.80;99.90
65074;DHT22;52218;51.224;-2.328;2022-10-16T09:08:08;12.00;99.90
65074;DHT22;52218;51.224;-2.328;2022-10-16T09:12:03;12.20;99.90
65074;DHT22;52218;51.224;-2.328;2022-10-16T09:19:56;12.50;99.90
65074;DHT22;52218;51.224;-2.328;2022-10-16T09:23:40;12.60;99.90
65074;DHT22;52218;51.224;-2.328;2022-10-16T09:27:22;12.70;99.90
65074;DHT22;52218;51.224;-2.328;2022-10-16T09:31:05;12.80;99.90
65074;DHT22;52218;51.224;-2.328;2022-10-16T09:34:55;13.00;99.90
65074;DHT22;52218;51.224;-2.328;2022-10-16T09:38:40;13.10;99.90
65074;DHT22;52218;51.224;-2.328;2022-10-16T09:42:28;13.30;99.90
65074;DHT22;52218;51.224;-2.328;2022-10-16T09:46:25;13.50;99.90
65074;DHT22;52218;51.224;-2.328;2022-10-16T09:50:34;13.70;99.90
65074;DHT22;52218;51.224;-2.328;2022-10-16T09:54:18;14.00;99.90
65074;DHT22;52218;51.224;-2.328;2022-10-16T09:58:00;14.10;99.90
65074;DHT22;52218;51.224;-2.328;2022-10-16T10:01:54;14.30;99.90
65074;DHT22;52218;51.224;-2.328;2022-10-16T10:05:39;14.80;99.90
65074;DHT22;52218;51.224;-2.328;2022-10-16T10:13:03;15.90;99.90
65074;DHT22;52218;51.224;-2.328;2022-10-16T10:16:45;16.80;99.00
65074;DHT22;52218;51.224;-2.328;2022-10-16T10:20:33;18.10;97.10
65074;DHT22;52218;51.224;-2.328;2022-10-16T10:24:17;19.50;95.10
65074;DHT22;52218;51.224;-2.328;2022-10-16T10:32:32;22.60;92.10
65074;DHT22;52218;51.224;-2.328;2022-10-16T10:36:32;23.80;90.30
65074;DHT22;52218;51.224;-2.328;2022-10-16T11:07:54;26.50;71.80
65074;DHT22;52218;51.224;-2.328;2022-10-16T11:15:32;25.30;73.70
65074;DHT22;52218;51.224;-2.328;2022-10-16T11:23:22;27.00;72.40
65074;DHT22;52218;51.224;-2.328;2022-10-16T11:27:10;27.60;68.50
65074;DHT22;52218;51.224;-2.328;2022-10-16T11:34:53;28.30;68.50
65074;DHT22;52218;51.224;-2.328;2022-10-16T11:42:41;28.60;67.30
65074;DHT22;52218;51.224;-2.328;2022-10-16T11:46:27;28.30;64.50
65074;DHT22;52218;51.224;-2.328;2022-10-16T11:58:37;27.20;69.30
65074;DHT22;52218;51.224;-2.328;2022-10-16T12:06:41;28.50;68.20
65074;DHT22;52218;51.224;-2.328;2022-10-16T12:10:27;28.30;63.20
65074;DHT22;52218;51.224;-2.328;2022-10-16T12:17:55;26.70;65.50
65074;DHT22;52218;51.224;-2.328;2022-10-16T12:21:37;26.30;66.50
65074;DHT22;52218;51.224;-2.328;2022-10-16T12:25:34;26.70;65.90
65074;DHT22;52218;51.224;-2.328;2022-10-16T12:33:34;26.20;66.10
65074;DHT22;52218;51.224;-2.328;2022-10-16T12:41:08;26.50;64.50
65074;DHT22;52218;51.224;-2.328;2022-10-16T12:44:50;27.10;64.10
65074;DHT22;52218;51.224;-2.328;2022-10-16T12:48:32;27.60;62.80
65074;DHT22;52218;51.224;-2.328;2022-10-16T12:52:37;28.00;60.60
65074;DHT22;52218;51.224;-2.328;2022-10-16T12:56:25;28.50;60.50
65074;DHT22;52218;51.224;-2.328;2022-10-16T13:00:21;28.60;58.80
65074;DHT22;52218;51.224;-2.328;2022-10-16T13:08:22;28.40;60.30
65074;DHT22;52218;51.224;-2.328;2022-10-16T13:20:29;28.40;60.60
65074;DHT22;52218;51.224;-2.328;2022-10-16T13:24:30;28.50;60.70
65074;DHT22;52218;51.224;-2.328;2022-10-16T13:28:22;28.40;58.90
65074;DHT22;52218;51.224;-2.328;2022-10-16T13:32:11;28.00;59.00
65074;DHT22;52218;51.224;-2.328;2022-10-16T13:35:56;27.70;58.20
65074;DHT22;52218;51.224;-2.328;2022-10-16T13:39:38;27.10;58.30
65074;DHT22;52218;51.224;-2.328;2022-10-16T13:43:59;26.20;58.20
65074;DHT22;52218;51.224;-2.328;2022-10-16T13:47:41;25.60;62.20
65074;DHT22;52218;51.224;-2.328;2022-10-16T13:51:23;24.90;60.40
65074;DHT22;52218;51.224;-2.328;2022-10-16T13:55:12;24.10;63.30
65074;DHT22;52218;51.224;-2.328;2022-10-16T13:59:05;23.30;65.60
65074;DHT22;52218;51.224;-2.328;2022-10-16T14:02:55;22.60;68.00
65074;DHT22;52218;51.224;-2.328;2022-10-16T14:06:44;22.20;69.20
65074;DHT22;52218;51.224;-2.328;2022-10-16T14:10:29;21.80;71.50
65074;DHT22;52218;51.224;-2.328;2022-10-16T14:14:12;21.30;72.60
65074;DHT22;52218;51.224;-2.328;2022-10-16T14:17:54;21.00;74.70
65074;DHT22;52218;51.224;-2.328;2022-10-16T14:21:37;20.60;75.90
65074;DHT22;52218;51.224;-2.328;2022-10-16T14:25:30;20.30;77.40
65074;DHT22;52218;51.224;-2.328;2022-10-16T14:29:15;20.10;78.40
65074;DHT22;52218;51.224;-2.328;2022-10-16T14:33:19;19.90;78.40
65074;DHT22;52218;51.224;-2.328;2022-10-16T14:37:23;19.80;79.10
65074;DHT22;52218;51.224;-2.328;2022-10-16T14:41:09;19.60;79.80
65074;DHT22;52218;51.224;-2.328;2022-10-16T14:44:52;19.40;82.40
65074;DHT22;52218;51.224;-2.328;2022-10-16T14:48:35;19.20;83.30
65074;DHT22;52218;51.224;-2.328;2022-10-16T14:52:17;19.10;84.00
65074;DHT22;52218;51.224;-2.328;2022-10-16T14:56:09;19.00;85.60
65074;DHT22;52218;51.224;-2.328;2022-10-16T14:59:54;18.90;85.80
65074;DHT22;52218;51.224;-2.328;2022-10-16T15:03:36;18.70;87.20
65074;DHT22;52218;51.224;-2.328;2022-10-16T15:07:18;18.60;87.20
65074;DHT22;52218;51.224;-2.328;2022-10-16T15:11:00;18.50;88.80
65074;DHT22;52218;51.224;-2.328;2022-10-16T15:14:42;18.40;89.50
65074;DHT22;52218;51.224;-2.328;2022-10-16T15:18:24;18.30;90.50
65074;DHT22;52218;51.224;-2.328;2022-10-16T15:22:08;18.10;90.60
65074;DHT22;52218;51.224;-2.328;2022-10-16T15:25:52;18.00;91.30
65074;DHT22;52218;51.224;-2.328;2022-10-16T15:29:35;18.00;91.50
65074;DHT22;52218;51.224;-2.328;2022-10-16T15:33:19;17.90;92.30
65074;DHT22;52218;51.224;-2.328;2022-10-16T15:37:03;17.80;92.60
65074;DHT22;52218;51.224;-2.328;2022-10-16T15:40:46;17.60;93.10
65074;DHT22;52218;51.224;-2.328;2022-10-16T15:44:28;17.60;93.50
65074;DHT22;52218;51.224;-2.328;2022-10-16T15:48:12;17.60;93.90
65074;DHT22;52218;51.224;-2.328;2022-10-16T15:51:55;17.60;94.40
65074;DHT22;52218;51.224;-2.328;2022-10-16T15:55:37;17.50;94.80
65074;DHT22;52218;51.224;-2.328;2022-10-16T15:59:19;17.40;95.40
65074;DHT22;52218;51.224;-2.328;2022-10-16T16:03:01;17.30;96.00
65074;DHT22;52218;51.224;-2.328;2022-10-16T16:06:43;17.30;96.30
65074;DHT22;52218;51.224;-2.328;2022-10-16T16:10:26;17.20;96.80
65074;DHT22;52218;51.224;-2.328;2022-10-16T16:14:12;17.10;97.40
65074;DHT22;52218;51.224;-2.328;2022-10-16T16:17:54;17.00;98.20
65074;DHT22;52218;51.224;-2.328;2022-10-16T16:21:36;16.90;99.00
65074;DHT22;52218;51.224;-2.328;2022-10-16T16:25:18;16.80;99.90
65074;DHT22;52218;51.224;-2.328;2022-10-16T16:29:01;16.60;99.90
65074;DHT22;52218;51.224;-2.328;2022-10-16T16:32:43;16.50;99.90
65074;DHT22;52218;51.224;-2.328;2022-10-16T16:36:25;16.40;99.90
65074;DHT22;52218;51.224;-2.328;2022-10-16T16:40:07;16.20;99.90
65074;DHT22;52218;51.224;-2.328;2022-10-16T16:43:51;16.10;99.90
65074;DHT22;52218;51.224;-2.328;2022-10-16T16:47:33;16.00;99.90
65074;DHT22;52218;51.224;-2.328;2022-10-16T16:51:16;15.90;99.90
65074;DHT22;52218;51.224;-2.328;2022-10-16T16:54:59;15.80;99.90
65074;DHT22;52218;51.224;-2.328;2022-10-16T16:58:45;15.70;99.90
65074;DHT22;52218;51.224;-2.328;2022-10-16T17:02:27;15.60;99.90
65074;DHT22;52218;51.224;-2.328;2022-10-16T17:06:09;15.60;99.90
65074;DHT22;52218;51.224;-2.328;2022-10-16T17:09:52;15.50;99.90
65074;DHT22;52218;51.224;-2.328;2022-10-16T17:13:34;15.40;99.90
65074;DHT22;52218;51.224;-2.328;2022-10-16T17:17:18;15.30;99.90
65074;DHT22;52218;51.224;-2.328;2022-10-16T17:21:03;15.20;99.90
65074;DHT22;52218;51.224;-2.328;2022-10-16T17:24:48;15.10;99.90
65074;DHT22;52218;51.224;-2.328;2022-10-16T17:28:31;15.00;99.90
65074;DHT22;52218;51.224;-2.328;2022-10-16T17:32:14;14.90;99.90
65074;DHT22;52218;51.224;-2.328;2022-10-16T17:35:58;14.90;99.90
65074;DHT22;52218;51.224;-2.328;2022-10-16T17:39:39;14.80;99.90
65074;DHT22;52218;51.224;-2.328;2022-10-16T17:43:21;14.80;99.90
65074;DHT22;52218;51.224;-2.328;2022-10-16T17:47:03;14.70;99.90
65074;DHT22;52218;51.224;-2.328;2022-10-16T17:50:45;14.70;99.90
65074;DHT22;52218;51.224;-2.328;2022-10-16T17:54:27;14.70;99.90
65074;DHT22;52218;51.224;-2.328;2022-10-16T17:58:09;14.60;99.90
65074;DHT22;52218;51.224;-2.328;2022-10-16T18:01:51;14.60;99.90
65074;DHT22;52218;51.224;-2.328;2022-10-16T18:05:37;14.50;99.90
65074;DHT22;52218;51.224;-2.328;2022-10-16T18:09:19;14.50;99.90
65074;DHT22;52218;51.224;-2.328;2022-10-16T18:13:01;14.50;99.90
65074;DHT22;52218;51.224;-2.328;2022-10-16T18:16:43;14.50;99.90
65074;DHT22;52218;51.224;-2.328;2022-10-16T18:20:25;14.50;99.90
65074;DHT22;52218;51.224;-2.328;2022-10-16T18:24:08;14.50;99.90
65074;DHT22;52218;51.224;-2.328;2022-10-16T18:27:50;14.50;99.90
65074;DHT22;52218;51.224;-2.328;2022-10-16T18:31:33;14.60;99.90
65074;DHT22;52218;51.224;-2.328;2022-10-16T18:35:20;14.60;99.90
65074;DHT22;52218;51.224;-2.328;2022-10-16T18:39:05;14.70;99.90
65074;DHT22;52218;51.224;-2.328;2022-10-16T18:42:51;14.70;99.90
65074;DHT22;52218;51.224;-2.328;2022-10-16T18:46:33;14.70;99.90
65074;DHT22;52218;51.224;-2.328;2022-10-16T18:50:15;14.80;99.90
65074;DHT22;52218;51.224;-2.328;2022-10-16T18:54:03;14.80;99.90
65074;DHT22;52218;51.224;-2.328;2022-10-16T18:57:45;14.80;99.90
65074;DHT22;52218;51.224;-2.328;2022-10-16T19:01:29;14.90;99.90
65074;DHT22;52218;51.224;-2.328;2022-10-16T19:05:11;14.90;99.90
65074;DHT22;52218;51.224;-2.328;2022-10-16T19:08:56;15.00;99.90
65074;DHT22;52218;51.224;-2.328;2022-10-16T19:12:38;15.00;99.90
65074;DHT22;52218;51.224;-2.328;2022-10-16T19:16:24;15.00;99.90
65074;DHT22;52218;51.224;-2.328;2022-10-16T19:20:07;15.10;99.90
65074;DHT22;52218;51.224;-2.328;2022-10-16T19:23:57;15.00;99.90
65074;DHT22;52218;51.224;-2.328;2022-10-16T19:27:39;15.10;99.90
65074;DHT22;52218;51.224;-2.328;2022-10-16T19:31:22;15.10;99.90
65074;DHT22;52218;51.224;-2.328;2022-10-16T19:35:06;15.20;99.90
65074;DHT22;52218;51.224;-2.328;2022-10-16T19:38:58;15.20;99.90
65074;DHT22;52218;51.224;-2.328;2022-10-16T19:42:40;15.30;99.90
65074;DHT22;52218;51.224;-2.328;2022-10-16T19:46:25;15.30;99.90
65074;DHT22;52218;51.224;-2.328;2022-10-16T19:50:09;15.40;99.90
65074;DHT22;52218;51.224;-2.328;2022-10-16T19:53:59;15.40;99.90
65074;DHT22;52218;51.224;-2.328;2022-10-16T19:57:41;15.50;99.90
65074;DHT22;52218;51.224;-2.328;2022-10-16T20:01:26;15.50;99.90
65074;DHT22;52218;51.224;-2.328;2022-10-16T20:05:08;15.60;99.90
65074;DHT22;52218;51.224;-2.328;2022-10-16T20:08:51;15.60;99.90
65074;DHT22;52218;51.224;-2.328;2022-10-16T20:12:33;15.70;99.90
65074;DHT22;52218;51.224;-2.328;2022-10-16T20:16:16;15.80;99.90
65074;DHT22;52218;51.224;-2.328;2022-10-16T20:19:59;15.80;99.90
65074;DHT22;52218;51.224;-2.328;2022-10-16T20:23:42;15.90;99.90
65074;DHT22;52218;51.224;-2.328;2022-10-16T20:27:25;15.90;99.90
65074;DHT22;52218;51.224;-2.328;2022-10-16T20:31:13;15.90;99.90
65074;DHT22;52218;51.224;-2.328;2022-10-16T20:34:58;15.90;99.90
65074;DHT22;52218;51.224;-2.328;2022-10-16T20:38:44;16.00;99.90
65074;DHT22;52218;51.224;-2.328;2022-10-16T20:42:26;16.00;99.90
65074;DHT22;52218;51.224;-2.328;2022-10-16T20:46:09;16.00;99.90
65074;DHT22;52218;51.224;-2.328;2022-10-16T20:49:54;16.00;99.90
65074;DHT22;52218;51.224;-2.328;2022-10-16T20:53:36;16.00;99.90
65074;DHT22;52218;51.224;-2.328;2022-10-16T20:57:20;16.00;99.90
65074;DHT22;52218;51.224;-2.328;2022-10-16T21:01:06;16.00;99.90
65074;DHT22;52218;51.224;-2.328;2022-10-16T21:04:49;16.00;99.90
65074;DHT22;52218;51.224;-2.328;2022-10-16T21:08:37;16.00;99.90
65074;DHT22;52218;51.224;-2.328;2022-10-16T21:12:19;16.00;99.90
65074;DHT22;52218;51.224;-2.328;2022-10-16T21:16:01;16.00;99.90
65074;DHT22;52218;51.224;-2.328;2022-10-16T21:19:43;16.00;99.90
65074;DHT22;52218;51.224;-2.328;2022-10-16T21:23:25;16.00;99.90
65074;DHT22;52218;51.224;-2.328;2022-10-16T21:27:08;15.90;99.90
65074;DHT22;52218;51.224;-2.328;2022-10-16T21:30:50;15.90;99.90
65074;DHT22;52218;51.224;-2.328;2022-10-16T21:34:33;15.90;99.90
65074;DHT22;52218;51.224;-2.328;2022-10-16T21:38:15;15.90;99.90
65074;DHT22;52218;51.224;-2.328;2022-10-16T21:41:57;16.00;99.90
65074;DHT22;52218;51.224;-2.328;2022-10-16T21:45:39;16.00;99.90
65074;DHT22;52218;51.224;-2.328;2022-10-16T21:49:21;16.00;99.90
65074;DHT22;52218;51.224;-2.328;2022-10-16T21:53:03;16.00;99.90
65074;DHT22;52218;51.224;-2.328;2022-10-16T21:56:45;15.90;99.90
65074;DHT22;52218;51.224;-2.328;2022-10-16T22:00:27;15.90;99.90
65074;DHT22;52218;51.224;-2.328;2022-10-16T22:04:11;15.90;99.90
65074;DHT22;52218;51.224;-2.328;2022-10-16T22:07:53;15.80;99.90
65074;DHT22;52218;51.224;-2.328;2022-10-16T22:11:36;15.80;99.90
65074;DHT22;52218;51.224;-2.328;2022-10-16T22:15:18;15.80;99.90
65074;DHT22;52218;51.224;-2.328;2022-10-16T22:19:00;15.80;99.90
65074;DHT22;52218;51.224;-2.328;2022-10-16T22:22:44;15.70;99.90
65074;DHT22;52218;51.224;-2.328;2022-10-16T22:26:26;15.70;99.90
65074;DHT22;52218;51.224;-2.328;2022-10-16T22:30:08;15.70;99.90
65074;DHT22;52218;51.224;-2.328;2022-10-16T22:33:55;15.70;99.90
65074;DHT22;52218;51.224;-2.328;2022-10-16T22:37:37;15.70;99.90
65074;DHT22;52218;51.224;-2.328;2022-10-16T22:41:19;15.60;99.90
65074;DHT22;52218;51.224;-2.328;2022-10-16T22:45:02;15.60;99.90
65074;DHT22;52218;51.224;-2.328;2022-10-16T22:48:44;15.60;99.90
65074;DHT22;52218;51.224;-2.328;2022-10-16T22:52:26;15.60;99.90
65074;DHT22;52218;51.224;-2.328;2022-10-16T22:56:09;15.60;99.90
65074;DHT22;52218;51.224;-2.328;2022-10-16T22:59:51;15.50;99.90
65074;DHT22;52218;51.224;-2.328;2022-10-16T23:03:33;15.50;99.90
65074;DHT22;52218;51.224;-2.328;2022-10-16T23:07:15;15.50;99.90
65074;DHT22;52218;51.224;-2.328;2022-10-16T23:10:57;15.50;99.90
65074;DHT22;52218;51.224;-2.328;2022-10-16T23:14:42;15.40;99.90
65074;DHT22;52218;51.224;-2.328;2022-10-16T23:18:24;15.40;99.90
65074;DHT22;52218;51.224;-2.328;2022-10-16T23:22:06;15.40;99.90
65074;DHT22;52218;51.224;-2.328;2022-10-16T23:25:48;15.40;99.90
65074;DHT22;52218;51.224;-2.328;2022-10-16T23:29:30;15.30;99.90
65074;DHT22;52218;51.224;-2.328;2022-10-16T23:33:12;15.30;99.90
65074;DHT22;52218;51.224;-2.328;2022-10-16T23:36:54;15.20;99.90
65074;DHT22;52218;51.224;-2.328;2022-10-16T23:40:35;15.20;99.90
65074;DHT22;52218;51.224;-2.328;2022-10-16T23:44:17;15.20;99.90
65074;DHT22;52218;51.224;-2.328;2022-10-16T23:47:59;15.20;99.90
65074;DHT22;52218;51.224;-2.328;2022-10-16T23:51:41;15.20;99.90
65074;DHT22;52218;51.224;-2.328;2022-10-16T23:55:23;15.20;99.90
65074;DHT22;52218;51.224;-2.328;2022-10-16T23:59:05;15.30;99.90
